sensor_id;sensor_type;location;lat;lon;timestamp;temperature;humidity
13148;DHT22;6639;50.956;4.242;2022-08-19T00:00:50;27.00;92.70
13148;DHT22;6639;50.956;4.242;2022-08-19T00:03:17;26.60;93.40
13148;DHT22;6639;50.956;4.242;2022-08-19T00:05:44;26.60;94.20
13148;DHT22;6639;50.956;4.242;2022-08-19T00:08:11;26.60;94.50
13148;DHT22;6639;50.956;4.242;2022-08-19T00:10:39;26.70;94.80
13148;DHT22;6639;50.956;4.242;2022-08-19T00:13:06;26.80;95.00
13148;DHT22;6639;50.956;4.242;2022-08-19T00:15:33;26.90;94.90
13148;DHT22;6639;50.956;4.242;2022-08-19T00:18:00;26.90;95.30
13148;DHT22;6639;50.956;4.242;2022-08-19T00:20:27;27.00;95.40
13148;DHT22;6639;50.956;4.242;2022-08-19T00:22:54;27.10;95.40
13148;DHT22;6639;50.956;4.242;2022-08-19T00:25:21;27.00;95.80
13148;DHT22;6639;50.956;4.242;2022-08-19T00:27:50;27.00;96.00
13148;DHT22;6639;50.956;4.242;2022-08-19T00:30:17;27.10;96.00
13148;DHT22;6639;50.956;4.242;2022-08-19T00:32:43;27.20;95.90
13148;DHT22;6639;50.956;4.242;2022-08-19T00:35:10;27.00;96.00
13148;DHT22;6639;50.956;4.242;2022-08-19T00:37:37;27.10;95.90
13148;DHT22;6639;50.956;4.242;2022-08-19T00:40:10;27.20;95.90
13148;DHT22;6639;50.956;4.242;2022-08-19T00:42:37;27.40;95.90
13148;DHT22;6639;50.956;4.242;2022-08-19T00:45:11;27.20;96.10
13148;DHT22;6639;50.956;4.242;2022-08-19T00:47:39;27.30;96.20
13148;DHT22;6639;50.956;4.242;2022-08-19T00:50:08;27.20;96.10
13148;DHT22;6639;50.956;4.242;2022-08-19T00:52:38;27.30;96.20
13148;DHT22;6639;50.956;4.242;2022-08-19T00:55:08;27.30;96.40
13148;DHT22;6639;50.956;4.242;2022-08-19T00:57:40;27.20;96.60
13148;DHT22;6639;50.956;4.242;2022-08-19T01:00:16;27.40;96.30
13148;DHT22;6639;50.956;4.242;2022-08-19T01:02:44;27.40;96.10
13148;DHT22;6639;50.956;4.242;2022-08-19T01:05:15;27.60;95.70
13148;DHT22;6639;50.956;4.242;2022-08-19T01:07:44;27.70;95.60
13148;DHT22;6639;50.956;4.242;2022-08-19T01:10:14;27.70;95.30
13148;DHT22;6639;50.956;4.242;2022-08-19T01:12:41;27.80;95.10
13148;DHT22;6639;50.956;4.242;2022-08-19T01:15:12;27.70;95.10
13148;DHT22;6639;50.956;4.242;2022-08-19T01:17:41;27.60;95.30
13148;DHT22;6639;50.956;4.242;2022-08-19T01:20:12;27.60;95.30
13148;DHT22;6639;50.956;4.242;2022-08-19T01:22:44;27.60;95.10
13148;DHT22;6639;50.956;4.242;2022-08-19T01:25:13;27.60;95.10
13148;DHT22;6639;50.956;4.242;2022-08-19T01:27:41;27.50;95.60
13148;DHT22;6639;50.956;4.242;2022-08-19T01:30:10;27.50;95.20
13148;DHT22;6639;50.956;4.242;2022-08-19T01:32:37;27.50;95.00
13148;DHT22;6639;50.956;4.242;2022-08-19T01:35:05;27.50;95.00
13148;DHT22;6639;50.956;4.242;2022-08-19T01:37:44;27.50;94.90
13148;DHT22;6639;50.956;4.242;2022-08-19T01:40:11;27.50;94.80
13148;DHT22;6639;50.956;4.242;2022-08-19T01:42:38;27.50;95.10
13148;DHT22;6639;50.956;4.242;2022-08-19T01:45:07;27.60;94.60
13148;DHT22;6639;50.956;4.242;2022-08-19T01:47:35;27.60;94.60
13148;DHT22;6639;50.956;4.242;2022-08-19T01:50:02;27.40;94.60
13148;DHT22;6639;50.956;4.242;2022-08-19T01:52:30;27.40;94.50
13148;DHT22;6639;50.956;4.242;2022-08-19T01:54:58;27.50;94.40
13148;DHT22;6639;50.956;4.242;2022-08-19T01:57:25;27.30;94.60
13148;DHT22;6639;50.956;4.242;2022-08-19T01:59:52;27.00;95.10
13148;DHT22;6639;50.956;4.242;2022-08-19T02:02:19;26.70;95.80
13148;DHT22;6639;50.956;4.242;2022-08-19T02:04:46;26.40;96.50
13148;DHT22;6639;50.956;4.242;2022-08-19T02:07:13;26.00;97.50
13148;DHT22;6639;50.956;4.242;2022-08-19T02:09:40;25.90;97.90
13148;DHT22;6639;50.956;4.242;2022-08-19T02:12:08;26.00;97.90
13148;DHT22;6639;50.956;4.242;2022-08-19T02:14:35;25.90;98.20
13148;DHT22;6639;50.956;4.242;2022-08-19T02:17:03;25.80;98.80
13148;DHT22;6639;50.956;4.242;2022-08-19T02:19:30;25.70;98.40
13148;DHT22;6639;50.956;4.242;2022-08-19T02:21:58;25.90;98.50
13148;DHT22;6639;50.956;4.242;2022-08-19T02:24:25;25.80;98.40
13148;DHT22;6639;50.956;4.242;2022-08-19T02:26:52;25.90;98.40
13148;DHT22;6639;50.956;4.242;2022-08-19T02:29:21;26.00;98.20
13148;DHT22;6639;50.956;4.242;2022-08-19T02:31:48;25.90;98.00
13148;DHT22;6639;50.956;4.242;2022-08-19T02:34:14;26.00;98.00
13148;DHT22;6639;50.956;4.242;2022-08-19T02:36:42;26.10;97.90
13148;DHT22;6639;50.956;4.242;2022-08-19T02:39:09;26.10;97.80
13148;DHT22;6639;50.956;4.242;2022-08-19T02:41:35;25.90;98.10
13148;DHT22;6639;50.956;4.242;2022-08-19T02:44:03;26.00;98.00
13148;DHT22;6639;50.956;4.242;2022-08-19T02:46:33;26.10;97.50
13148;DHT22;6639;50.956;4.242;2022-08-19T02:49:02;25.90;97.70
13148;DHT22;6639;50.956;4.242;2022-08-19T02:51:35;25.90;97.90
13148;DHT22;6639;50.956;4.242;2022-08-19T02:54:03;25.60;98.20
13148;DHT22;6639;50.956;4.242;2022-08-19T02:56:31;25.50;98.60
13148;DHT22;6639;50.956;4.242;2022-08-19T02:58:58;25.60;98.40
13148;DHT22;6639;50.956;4.242;2022-08-19T03:01:27;25.70;98.30
13148;DHT22;6639;50.956;4.242;2022-08-19T03:03:56;25.50;98.50
13148;DHT22;6639;50.956;4.242;2022-08-19T03:06:23;25.40;98.60
13148;DHT22;6639;50.956;4.242;2022-08-19T03:08:51;25.40;98.70
13148;DHT22;6639;50.956;4.242;2022-08-19T03:11:20;25.40;98.60
13148;DHT22;6639;50.956;4.242;2022-08-19T03:13:48;25.50;98.50
13148;DHT22;6639;50.956;4.242;2022-08-19T03:16:17;25.80;98.50
13148;DHT22;6639;50.956;4.242;2022-08-19T03:18:45;25.80;97.60
13148;DHT22;6639;50.956;4.242;2022-08-19T03:21:16;25.60;97.70
13148;DHT22;6639;50.956;4.242;2022-08-19T03:23:43;25.60;98.10
13148;DHT22;6639;50.956;4.242;2022-08-19T03:26:11;25.50;98.20
13148;DHT22;6639;50.956;4.242;2022-08-19T03:28:38;25.10;98.80
13148;DHT22;6639;50.956;4.242;2022-08-19T03:31:07;25.20;99.00
13148;DHT22;6639;50.956;4.242;2022-08-19T03:33:35;25.00;99.10
13148;DHT22;6639;50.956;4.242;2022-08-19T03:36:06;25.00;99.30
13148;DHT22;6639;50.956;4.242;2022-08-19T03:38:35;25.20;99.20
13148;DHT22;6639;50.956;4.242;2022-08-19T03:41:05;25.20;99.10
13148;DHT22;6639;50.956;4.242;2022-08-19T03:43:34;25.10;99.20
13148;DHT22;6639;50.956;4.242;2022-08-19T03:46:02;25.00;99.30
13148;DHT22;6639;50.956;4.242;2022-08-19T03:48:30;25.00;99.40
13148;DHT22;6639;50.956;4.242;2022-08-19T03:50:57;24.90;99.70
13148;DHT22;6639;50.956;4.242;2022-08-19T03:53:25;25.00;99.60
13148;DHT22;6639;50.956;4.242;2022-08-19T03:55:54;25.20;99.30
13148;DHT22;6639;50.956;4.242;2022-08-19T03:58:22;25.40;99.00
13148;DHT22;6639;50.956;4.242;2022-08-19T04:00:49;25.40;98.60
13148;DHT22;6639;50.956;4.242;2022-08-19T04:03:16;25.40;98.60
13148;DHT22;6639;50.956;4.242;2022-08-19T04:05:44;25.70;98.10
13148;DHT22;6639;50.956;4.242;2022-08-19T04:08:12;25.80;97.80
13148;DHT22;6639;50.956;4.242;2022-08-19T04:10:42;25.80;97.60
13148;DHT22;6639;50.956;4.242;2022-08-19T04:13:10;25.60;97.60
13148;DHT22;6639;50.956;4.242;2022-08-19T04:15:39;25.40;97.90
13148;DHT22;6639;50.956;4.242;2022-08-19T04:18:07;25.20;98.60
13148;DHT22;6639;50.956;4.242;2022-08-19T04:20:39;25.10;99.00
13148;DHT22;6639;50.956;4.242;2022-08-19T04:23:06;24.90;99.30
13148;DHT22;6639;50.956;4.242;2022-08-19T04:25:38;24.80;99.30
13148;DHT22;6639;50.956;4.242;2022-08-19T04:28:05;25.00;99.50
13148;DHT22;6639;50.956;4.242;2022-08-19T04:30:39;25.10;99.30
13148;DHT22;6639;50.956;4.242;2022-08-19T04:33:06;25.00;99.20
13148;DHT22;6639;50.956;4.242;2022-08-19T04:35:38;25.10;99.20
13148;DHT22;6639;50.956;4.242;2022-08-19T04:38:06;25.00;99.40
13148;DHT22;6639;50.956;4.242;2022-08-19T04:40:33;25.00;99.10
13148;DHT22;6639;50.956;4.242;2022-08-19T04:43:17;25.20;99.00
13148;DHT22;6639;50.956;4.242;2022-08-19T04:45:46;25.00;99.00
13148;DHT22;6639;50.956;4.242;2022-08-19T04:48:13;24.60;99.90
13148;DHT22;6639;50.956;4.242;2022-08-19T04:50:42;24.30;99.90
13148;DHT22;6639;50.956;4.242;2022-08-19T04:53:09;24.40;99.90
13148;DHT22;6639;50.956;4.242;2022-08-19T04:55:40;24.20;99.90
13148;DHT22;6639;50.956;4.242;2022-08-19T04:58:07;23.90;99.90
13148;DHT22;6639;50.956;4.242;2022-08-19T05:00:34;23.90;99.90
13148;DHT22;6639;50.956;4.242;2022-08-19T05:03:02;24.10;99.90
13148;DHT22;6639;50.956;4.242;2022-08-19T05:05:29;23.90;99.90
13148;DHT22;6639;50.956;4.242;2022-08-19T05:07:57;23.90;99.90
13148;DHT22;6639;50.956;4.242;2022-08-19T05:10:23;23.90;99.90
13148;DHT22;6639;50.956;4.242;2022-08-19T05:12:50;24.00;99.90
13148;DHT22;6639;50.956;4.242;2022-08-19T05:15:17;24.00;99.90
13148;DHT22;6639;50.956;4.242;2022-08-19T05:17:44;23.80;99.90
13148;DHT22;6639;50.956;4.242;2022-08-19T05:20:32;23.80;99.90
13148;DHT22;6639;50.956;4.242;2022-08-19T05:23:17;23.50;99.90
13148;DHT22;6639;50.956;4.242;2022-08-19T05:25:44;23.80;99.90
13148;DHT22;6639;50.956;4.242;2022-08-19T05:28:11;23.90;99.90
13148;DHT22;6639;50.956;4.242;2022-08-19T05:30:38;23.70;99.90
13148;DHT22;6639;50.956;4.242;2022-08-19T05:33:06;23.80;99.90
13148;DHT22;6639;50.956;4.242;2022-08-19T05:35:38;23.60;99.90
13148;DHT22;6639;50.956;4.242;2022-08-19T05:38:05;24.00;99.90
13148;DHT22;6639;50.956;4.242;2022-08-19T05:40:33;24.30;99.90
13148;DHT22;6639;50.956;4.242;2022-08-19T05:43:01;24.70;99.90
13148;DHT22;6639;50.956;4.242;2022-08-19T05:45:28;24.90;99.90
13148;DHT22;6639;50.956;4.242;2022-08-19T05:47:55;25.10;99.90
13148;DHT22;6639;50.956;4.242;2022-08-19T05:50:22;24.90;99.90
13148;DHT22;6639;50.956;4.242;2022-08-19T05:52:50;25.20;99.90
13148;DHT22;6639;50.956;4.242;2022-08-19T05:55:17;25.00;99.90
13148;DHT22;6639;50.956;4.242;2022-08-19T05:57:45;24.80;99.90
13148;DHT22;6639;50.956;4.242;2022-08-19T06:00:13;24.70;99.90
13148;DHT22;6639;50.956;4.242;2022-08-19T06:02:40;24.70;99.90
13148;DHT22;6639;50.956;4.242;2022-08-19T06:05:08;24.70;99.90
13148;DHT22;6639;50.956;4.242;2022-08-19T06:07:36;24.80;99.90
13148;DHT22;6639;50.956;4.242;2022-08-19T06:10:07;25.20;99.90
13148;DHT22;6639;50.956;4.242;2022-08-19T06:12:35;25.30;99.90
13148;DHT22;6639;50.956;4.242;2022-08-19T06:15:04;25.40;99.90
13148;DHT22;6639;50.956;4.242;2022-08-19T06:17:32;25.60;99.90
13148;DHT22;6639;50.956;4.242;2022-08-19T06:20:00;25.50;99.90
13148;DHT22;6639;50.956;4.242;2022-08-19T06:22:27;25.80;99.90
13148;DHT22;6639;50.956;4.242;2022-08-19T06:24:55;25.90;99.90
13148;DHT22;6639;50.956;4.242;2022-08-19T06:27:23;25.80;99.90
13148;DHT22;6639;50.956;4.242;2022-08-19T06:29:50;25.60;99.90
13148;DHT22;6639;50.956;4.242;2022-08-19T06:32:17;25.60;99.90
13148;DHT22;6639;50.956;4.242;2022-08-19T06:34:44;25.30;99.90
13148;DHT22;6639;50.956;4.242;2022-08-19T06:37:12;25.30;99.90
13148;DHT22;6639;50.956;4.242;2022-08-19T06:39:40;25.50;99.90
13148;DHT22;6639;50.956;4.242;2022-08-19T06:42:10;25.10;99.90
13148;DHT22;6639;50.956;4.242;2022-08-19T06:44:41;24.90;99.90
13148;DHT22;6639;50.956;4.242;2022-08-19T06:47:10;24.60;99.90
13148;DHT22;6639;50.956;4.242;2022-08-19T06:49:37;24.60;99.90
13148;DHT22;6639;50.956;4.242;2022-08-19T06:52:05;24.60;99.90
13148;DHT22;6639;50.956;4.242;2022-08-19T06:54:32;24.20;99.90
13148;DHT22;6639;50.956;4.242;2022-08-19T06:57:00;24.30;99.90
13148;DHT22;6639;50.956;4.242;2022-08-19T06:59:29;24.70;99.90
13148;DHT22;6639;50.956;4.242;2022-08-19T07:02:01;24.70;99.90
13148;DHT22;6639;50.956;4.242;2022-08-19T07:04:32;24.40;99.90
13148;DHT22;6639;50.956;4.242;2022-08-19T07:07:01;24.60;99.90
13148;DHT22;6639;50.956;4.242;2022-08-19T07:09:28;24.20;99.90
13148;DHT22;6639;50.956;4.242;2022-08-19T07:11:55;24.40;99.90
13148;DHT22;6639;50.956;4.242;2022-08-19T07:14:24;24.70;99.90
13148;DHT22;6639;50.956;4.242;2022-08-19T07:16:53;24.80;99.90
13148;DHT22;6639;50.956;4.242;2022-08-19T07:19:24;24.90;99.90
13148;DHT22;6639;50.956;4.242;2022-08-19T07:21:52;24.50;99.90
13148;DHT22;6639;50.956;4.242;2022-08-19T07:24:20;24.70;99.90
13148;DHT22;6639;50.956;4.242;2022-08-19T07:26:50;24.70;99.90
13148;DHT22;6639;50.956;4.242;2022-08-19T07:29:17;25.20;99.90
13148;DHT22;6639;50.956;4.242;2022-08-19T07:31:45;24.90;99.90
13148;DHT22;6639;50.956;4.242;2022-08-19T07:34:12;24.90;99.90
13148;DHT22;6639;50.956;4.242;2022-08-19T07:36:43;25.30;99.90
13148;DHT22;6639;50.956;4.242;2022-08-19T07:39:11;25.70;99.90
13148;DHT22;6639;50.956;4.242;2022-08-19T07:41:39;25.90;99.90
13148;DHT22;6639;50.956;4.242;2022-08-19T07:44:07;26.10;99.90
13148;DHT22;6639;50.956;4.242;2022-08-19T07:46:37;25.90;99.90
13148;DHT22;6639;50.956;4.242;2022-08-19T07:49:06;25.60;99.90
13148;DHT22;6639;50.956;4.242;2022-08-19T07:51:35;25.90;99.90
13148;DHT22;6639;50.956;4.242;2022-08-19T07:54:03;26.10;99.90
13148;DHT22;6639;50.956;4.242;2022-08-19T07:56:30;26.20;99.90
13148;DHT22;6639;50.956;4.242;2022-08-19T07:58:57;26.60;99.90
13148;DHT22;6639;50.956;4.242;2022-08-19T08:01:26;26.70;99.90
13148;DHT22;6639;50.956;4.242;2022-08-19T08:03:55;26.50;99.90
13148;DHT22;6639;50.956;4.242;2022-08-19T08:06:40;26.90;99.90
13148;DHT22;6639;50.956;4.242;2022-08-19T08:09:29;26.60;99.90
13148;DHT22;6639;50.956;4.242;2022-08-19T08:11:59;26.20;99.90
13148;DHT22;6639;50.956;4.242;2022-08-19T08:14:28;26.30;99.90
13148;DHT22;6639;50.956;4.242;2022-08-19T08:16:56;26.20;99.90
13148;DHT22;6639;50.956;4.242;2022-08-19T08:19:25;26.20;99.90
13148;DHT22;6639;50.956;4.242;2022-08-19T08:21:53;26.50;99.90
13148;DHT22;6639;50.956;4.242;2022-08-19T08:24:20;26.60;99.90
13148;DHT22;6639;50.956;4.242;2022-08-19T08:26:48;26.60;99.90
13148;DHT22;6639;50.956;4.242;2022-08-19T08:29:15;26.30;99.90
13148;DHT22;6639;50.956;4.242;2022-08-19T08:31:44;26.10;99.90
13148;DHT22;6639;50.956;4.242;2022-08-19T08:34:13;25.80;99.90
13148;DHT22;6639;50.956;4.242;2022-08-19T08:36:43;25.80;99.90
13148;DHT22;6639;50.956;4.242;2022-08-19T08:39:12;25.90;99.90
13148;DHT22;6639;50.956;4.242;2022-08-19T08:41:44;25.70;99.90
13148;DHT22;6639;50.956;4.242;2022-08-19T08:44:17;25.60;99.90
13148;DHT22;6639;50.956;4.242;2022-08-19T08:46:48;25.70;99.90
13148;DHT22;6639;50.956;4.242;2022-08-19T08:49:26;26.10;99.90
13148;DHT22;6639;50.956;4.242;2022-08-19T08:52:00;26.00;99.90
13148;DHT22;6639;50.956;4.242;2022-08-19T08:54:32;25.80;99.90
13148;DHT22;6639;50.956;4.242;2022-08-19T08:57:00;25.90;99.90
13148;DHT22;6639;50.956;4.242;2022-08-19T08:59:33;26.20;99.90
13148;DHT22;6639;50.956;4.242;2022-08-19T09:02:01;26.00;99.90
13148;DHT22;6639;50.956;4.242;2022-08-19T09:04:28;26.10;99.90
13148;DHT22;6639;50.956;4.242;2022-08-19T09:07:10;26.30;99.90
13148;DHT22;6639;50.956;4.242;2022-08-19T09:09:43;26.30;99.90
13148;DHT22;6639;50.956;4.242;2022-08-19T09:12:16;26.60;99.90
13148;DHT22;6639;50.956;4.242;2022-08-19T09:14:49;26.90;99.90
13148;DHT22;6639;50.956;4.242;2022-08-19T09:17:19;26.30;99.90
13148;DHT22;6639;50.956;4.242;2022-08-19T09:19:51;26.30;99.90
13148;DHT22;6639;50.956;4.242;2022-08-19T09:22:18;26.50;99.90
13148;DHT22;6639;50.956;4.242;2022-08-19T09:24:48;26.10;99.90
13148;DHT22;6639;50.956;4.242;2022-08-19T09:27:15;26.00;99.90
13148;DHT22;6639;50.956;4.242;2022-08-19T09:29:42;26.30;99.90
13148;DHT22;6639;50.956;4.242;2022-08-19T09:32:10;26.60;99.90
13148;DHT22;6639;50.956;4.242;2022-08-19T09:34:37;26.70;99.90
13148;DHT22;6639;50.956;4.242;2022-08-19T09:37:04;26.70;99.90
13148;DHT22;6639;50.956;4.242;2022-08-19T09:39:31;26.80;99.90
13148;DHT22;6639;50.956;4.242;2022-08-19T09:41:58;27.10;99.90
13148;DHT22;6639;50.956;4.242;2022-08-19T09:44:25;27.00;99.90
13148;DHT22;6639;50.956;4.242;2022-08-19T09:46:52;27.20;99.90
13148;DHT22;6639;50.956;4.242;2022-08-19T09:49:20;27.20;99.90
13148;DHT22;6639;50.956;4.242;2022-08-19T09:51:49;26.80;99.90
13148;DHT22;6639;50.956;4.242;2022-08-19T09:54:16;26.30;99.90
13148;DHT22;6639;50.956;4.242;2022-08-19T09:56:44;26.50;99.90
13148;DHT22;6639;50.956;4.242;2022-08-19T09:59:10;27.10;99.90
13148;DHT22;6639;50.956;4.242;2022-08-19T10:01:38;27.10;99.90
13148;DHT22;6639;50.956;4.242;2022-08-19T10:04:05;27.20;99.90
13148;DHT22;6639;50.956;4.242;2022-08-19T10:06:36;27.00;99.90
13148;DHT22;6639;50.956;4.242;2022-08-19T10:09:04;26.50;99.90
13148;DHT22;6639;50.956;4.242;2022-08-19T10:11:32;26.70;99.90
13148;DHT22;6639;50.956;4.242;2022-08-19T10:14:00;26.90;99.90
13148;DHT22;6639;50.956;4.242;2022-08-19T10:16:27;27.30;99.90
13148;DHT22;6639;50.956;4.242;2022-08-19T10:18:54;27.10;99.90
13148;DHT22;6639;50.956;4.242;2022-08-19T10:21:23;27.50;99.90
13148;DHT22;6639;50.956;4.242;2022-08-19T10:23:54;28.00;99.90
13148;DHT22;6639;50.956;4.242;2022-08-19T10:26:24;28.40;99.90
13148;DHT22;6639;50.956;4.242;2022-08-19T10:28:51;28.30;99.90
13148;DHT22;6639;50.956;4.242;2022-08-19T10:31:20;28.10;99.90
13148;DHT22;6639;50.956;4.242;2022-08-19T10:33:49;28.00;99.90
13148;DHT22;6639;50.956;4.242;2022-08-19T10:36:18;28.00;99.90
13148;DHT22;6639;50.956;4.242;2022-08-19T10:38:47;28.30;99.90
13148;DHT22;6639;50.956;4.242;2022-08-19T10:41:19;28.90;99.90
13148;DHT22;6639;50.956;4.242;2022-08-19T10:43:49;29.30;99.90
13148;DHT22;6639;50.956;4.242;2022-08-19T10:46:18;29.10;99.90
13148;DHT22;6639;50.956;4.242;2022-08-19T10:48:45;28.60;99.90
13148;DHT22;6639;50.956;4.242;2022-08-19T10:51:12;28.00;99.90
13148;DHT22;6639;50.956;4.242;2022-08-19T10:53:57;27.50;99.90
13148;DHT22;6639;50.956;4.242;2022-08-19T10:56:26;27.50;99.90
13148;DHT22;6639;50.956;4.242;2022-08-19T10:59:18;27.00;99.90
13148;DHT22;6639;50.956;4.242;2022-08-19T11:01:46;27.20;99.90
13148;DHT22;6639;50.956;4.242;2022-08-19T11:04:13;27.50;99.90
13148;DHT22;6639;50.956;4.242;2022-08-19T11:06:43;27.90;99.90
13148;DHT22;6639;50.956;4.242;2022-08-19T11:09:12;28.10;99.90
13148;DHT22;6639;50.956;4.242;2022-08-19T11:11:42;28.20;99.90
13148;DHT22;6639;50.956;4.242;2022-08-19T11:14:11;28.10;99.90
13148;DHT22;6639;50.956;4.242;2022-08-19T11:16:38;28.00;99.90
13148;DHT22;6639;50.956;4.242;2022-08-19T11:19:06;27.90;99.90
13148;DHT22;6639;50.956;4.242;2022-08-19T11:21:36;28.00;99.90
13148;DHT22;6639;50.956;4.242;2022-08-19T11:24:06;28.20;99.90
13148;DHT22;6639;50.956;4.242;2022-08-19T11:26:34;28.30;99.90
13148;DHT22;6639;50.956;4.242;2022-08-19T11:29:03;27.80;99.90
13148;DHT22;6639;50.956;4.242;2022-08-19T11:31:34;28.00;99.90
13148;DHT22;6639;50.956;4.242;2022-08-19T11:34:04;27.80;99.90
13148;DHT22;6639;50.956;4.242;2022-08-19T11:36:31;28.30;99.90
13148;DHT22;6639;50.956;4.242;2022-08-19T11:38:59;28.40;99.90
13148;DHT22;6639;50.956;4.242;2022-08-19T11:41:26;28.70;99.90
13148;DHT22;6639;50.956;4.242;2022-08-19T11:43:54;29.10;99.90
13148;DHT22;6639;50.956;4.242;2022-08-19T11:46:24;28.90;99.90
13148;DHT22;6639;50.956;4.242;2022-08-19T11:48:51;29.30;99.90
13148;DHT22;6639;50.956;4.242;2022-08-19T11:51:21;29.20;99.90
13148;DHT22;6639;50.956;4.242;2022-08-19T11:53:50;29.60;99.90
13148;DHT22;6639;50.956;4.242;2022-08-19T11:56:18;29.40;99.90
13148;DHT22;6639;50.956;4.242;2022-08-19T11:58:45;29.50;99.80
13148;DHT22;6639;50.956;4.242;2022-08-19T12:01:14;29.20;99.90
13148;DHT22;6639;50.956;4.242;2022-08-19T12:03:43;29.50;99.90
13148;DHT22;6639;50.956;4.242;2022-08-19T12:06:13;29.50;99.90
13148;DHT22;6639;50.956;4.242;2022-08-19T12:08:41;29.50;99.90
13148;DHT22;6639;50.956;4.242;2022-08-19T12:11:07;29.50;99.90
13148;DHT22;6639;50.956;4.242;2022-08-19T12:13:36;29.30;99.90
13148;DHT22;6639;50.956;4.242;2022-08-19T12:16:07;29.40;99.90
13148;DHT22;6639;50.956;4.242;2022-08-19T12:18:36;29.60;99.90
13148;DHT22;6639;50.956;4.242;2022-08-19T12:21:04;30.00;99.30
13148;DHT22;6639;50.956;4.242;2022-08-19T12:23:31;30.20;99.20
13148;DHT22;6639;50.956;4.242;2022-08-19T12:25:58;29.70;99.40
13148;DHT22;6639;50.956;4.242;2022-08-19T12:28:25;29.60;99.80
13148;DHT22;6639;50.956;4.242;2022-08-19T12:30:52;29.80;99.60
13148;DHT22;6639;50.956;4.242;2022-08-19T12:33:19;29.60;99.80
13148;DHT22;6639;50.956;4.242;2022-08-19T12:35:49;29.80;99.50
13148;DHT22;6639;50.956;4.242;2022-08-19T12:38:18;29.60;99.20
13148;DHT22;6639;50.956;4.242;2022-08-19T12:40:48;29.60;99.40
13148;DHT22;6639;50.956;4.242;2022-08-19T12:43:17;29.80;99.00
13148;DHT22;6639;50.956;4.242;2022-08-19T12:45:45;30.00;98.80
13148;DHT22;6639;50.956;4.242;2022-08-19T12:48:12;30.30;98.50
13148;DHT22;6639;50.956;4.242;2022-08-19T12:50:40;30.20;97.90
13148;DHT22;6639;50.956;4.242;2022-08-19T12:53:07;30.00;98.80
13148;DHT22;6639;50.956;4.242;2022-08-19T12:55:35;30.30;98.40
13148;DHT22;6639;50.956;4.242;2022-08-19T12:58:02;30.20;98.10
13148;DHT22;6639;50.956;4.242;2022-08-19T13:00:29;29.80;98.40
13148;DHT22;6639;50.956;4.242;2022-08-19T13:02:59;29.70;98.40
13148;DHT22;6639;50.956;4.242;2022-08-19T13:05:29;29.70;98.60
13148;DHT22;6639;50.956;4.242;2022-08-19T13:07:58;30.00;98.90
13148;DHT22;6639;50.956;4.242;2022-08-19T13:10:27;30.50;97.90
13148;DHT22;6639;50.956;4.242;2022-08-19T13:12:55;30.30;97.50
13148;DHT22;6639;50.956;4.242;2022-08-19T13:15:25;30.70;97.30
13148;DHT22;6639;50.956;4.242;2022-08-19T13:17:54;30.70;97.30
13148;DHT22;6639;50.956;4.242;2022-08-19T13:20:22;30.90;96.90
13148;DHT22;6639;50.956;4.242;2022-08-19T13:22:49;30.10;97.00
13148;DHT22;6639;50.956;4.242;2022-08-19T13:25:17;29.80;97.90
13148;DHT22;6639;50.956;4.242;2022-08-19T13:27:46;29.70;98.40
13148;DHT22;6639;50.956;4.242;2022-08-19T13:30:16;29.80;98.20
13148;DHT22;6639;50.956;4.242;2022-08-19T13:33:01;29.70;98.20
13148;DHT22;6639;50.956;4.242;2022-08-19T13:35:47;29.30;99.00
13148;DHT22;6639;50.956;4.242;2022-08-19T13:38:17;29.30;99.10
13148;DHT22;6639;50.956;4.242;2022-08-19T13:40:44;29.30;99.30
13148;DHT22;6639;50.956;4.242;2022-08-19T13:43:11;29.40;99.90
13148;DHT22;6639;50.956;4.242;2022-08-19T13:45:40;29.50;99.50
13148;DHT22;6639;50.956;4.242;2022-08-19T13:48:07;29.20;99.90
13148;DHT22;6639;50.956;4.242;2022-08-19T13:50:38;28.90;99.90
13148;DHT22;6639;50.956;4.242;2022-08-19T13:53:07;29.00;99.90
13148;DHT22;6639;50.956;4.242;2022-08-19T13:55:34;29.20;99.90
13148;DHT22;6639;50.956;4.242;2022-08-19T13:58:02;29.30;99.80
13148;DHT22;6639;50.956;4.242;2022-08-19T14:00:34;29.10;99.30
13148;DHT22;6639;50.956;4.242;2022-08-19T14:03:03;28.60;99.90
13148;DHT22;6639;50.956;4.242;2022-08-19T14:05:30;28.90;99.90
13148;DHT22;6639;50.956;4.242;2022-08-19T14:07:58;28.80;99.90
13148;DHT22;6639;50.956;4.242;2022-08-19T14:10:26;28.60;99.90
13148;DHT22;6639;50.956;4.242;2022-08-19T14:12:58;28.20;99.90
13148;DHT22;6639;50.956;4.242;2022-08-19T14:15:25;28.00;99.90
13148;DHT22;6639;50.956;4.242;2022-08-19T14:17:53;27.90;99.90
13148;DHT22;6639;50.956;4.242;2022-08-19T14:20:22;27.60;99.90
13148;DHT22;6639;50.956;4.242;2022-08-19T14:22:49;27.50;99.90
13148;DHT22;6639;50.956;4.242;2022-08-19T14:25:18;27.30;99.90
13148;DHT22;6639;50.956;4.242;2022-08-19T14:27:45;27.20;99.90
13148;DHT22;6639;50.956;4.242;2022-08-19T14:30:16;27.50;99.90
13148;DHT22;6639;50.956;4.242;2022-08-19T14:32:43;28.10;99.90
13148;DHT22;6639;50.956;4.242;2022-08-19T14:35:11;28.20;99.90
13148;DHT22;6639;50.956;4.242;2022-08-19T14:37:41;28.00;99.90
13148;DHT22;6639;50.956;4.242;2022-08-19T14:40:09;27.90;99.90
13148;DHT22;6639;50.956;4.242;2022-08-19T14:42:37;28.30;99.90
13148;DHT22;6639;50.956;4.242;2022-08-19T14:45:05;28.60;99.90
13148;DHT22;6639;50.956;4.242;2022-08-19T14:47:32;28.90;99.90
13148;DHT22;6639;50.956;4.242;2022-08-19T14:49:59;28.90;99.90
13148;DHT22;6639;50.956;4.242;2022-08-19T14:52:26;28.90;99.90
13148;DHT22;6639;50.956;4.242;2022-08-19T14:54:54;29.00;99.90
13148;DHT22;6639;50.956;4.242;2022-08-19T14:57:21;29.00;99.90
13148;DHT22;6639;50.956;4.242;2022-08-19T14:59:48;29.00;99.90
13148;DHT22;6639;50.956;4.242;2022-08-19T15:02:15;29.20;99.90
13148;DHT22;6639;50.956;4.242;2022-08-19T15:04:42;29.40;99.90
13148;DHT22;6639;50.956;4.242;2022-08-19T15:07:10;29.60;99.90
13148;DHT22;6639;50.956;4.242;2022-08-19T15:09:37;29.40;99.90
13148;DHT22;6639;50.956;4.242;2022-08-19T15:12:05;29.20;99.90
13148;DHT22;6639;50.956;4.242;2022-08-19T15:14:36;29.60;99.90
13148;DHT22;6639;50.956;4.242;2022-08-19T15:17:03;29.00;99.90
13148;DHT22;6639;50.956;4.242;2022-08-19T15:19:32;29.10;99.90
13148;DHT22;6639;50.956;4.242;2022-08-19T15:22:01;29.50;99.90
13148;DHT22;6639;50.956;4.242;2022-08-19T15:24:28;29.80;99.90
13148;DHT22;6639;50.956;4.242;2022-08-19T15:26:55;30.20;99.50
13148;DHT22;6639;50.956;4.242;2022-08-19T15:29:23;30.60;99.00
13148;DHT22;6639;50.956;4.242;2022-08-19T15:31:51;31.00;98.00
13148;DHT22;6639;50.956;4.242;2022-08-19T15:34:20;31.20;97.60
13148;DHT22;6639;50.956;4.242;2022-08-19T15:36:47;31.20;97.70
13148;DHT22;6639;50.956;4.242;2022-08-19T15:39:14;31.40;97.10
13148;DHT22;6639;50.956;4.242;2022-08-19T15:41:41;31.50;96.60
13148;DHT22;6639;50.956;4.242;2022-08-19T15:44:11;31.30;96.70
13148;DHT22;6639;50.956;4.242;2022-08-19T15:46:42;30.90;97.30
13148;DHT22;6639;50.956;4.242;2022-08-19T15:49:09;30.70;97.80
13148;DHT22;6639;50.956;4.242;2022-08-19T15:51:38;30.90;97.80
13148;DHT22;6639;50.956;4.242;2022-08-19T15:54:08;30.80;97.80